createdAt,value
2022-10-11T00:00:19.051Z,102339.50
2022-10-11T00:02:46.160Z,102336.03
2022-10-11T00:05:13.261Z,102341.22
2022-10-11T00:07:40.511Z,102336.00
2022-10-11T00:10:09.448Z,102340.34
2022-10-11T00:12:37.005Z,102342.94
2022-10-11T00:15:06.947Z,102345.53
2022-10-11T00:17:35.405Z,102349.06
2022-10-11T00:20:02.404Z,102349.03
2022-10-11T00:22:29.479Z,102353.41
2022-10-11T00:24:58.661Z,102349.91
2022-10-11T00:27:27.486Z,102352.53
2022-10-11T00:29:54.716Z,102356.88
2022-10-11T00:32:21.867Z,102359.47
2022-10-11T00:34:49.023Z,102357.72
2022-10-11T00:37:16.139Z,102354.16
2022-10-11T00:39:43.252Z,102360.28
2022-10-11T00:42:15.671Z,102363.78
2022-10-11T00:44:50.927Z,102362.97
2022-10-11T00:47:23.081Z,102369.06
2022-10-11T00:49:59.186Z,102360.34
2022-10-11T00:52:37.462Z,102368.16
2022-10-11T00:55:18.481Z,102367.28
2022-10-11T00:57:49.532Z,102374.28
2022-10-11T01:00:17.191Z,102362.03
2022-10-11T01:02:44.454Z,102371.66
2022-10-11T01:05:29.165Z,102371.63
2022-10-11T01:08:00.306Z,102377.69
2022-10-11T01:10:29.432Z,102371.53
2022-10-11T01:13:32.931Z,102371.50
2022-10-11T01:16:34.048Z,102373.22
2022-10-11T01:19:38.621Z,102380.16
2022-10-11T01:22:20.834Z,102372.22
2022-10-11T01:25:37.650Z,102373.06
2022-10-11T01:28:49.085Z,102375.59
2022-10-11T01:31:39.660Z,102375.53
2022-10-11T01:34:13.929Z,102372.03
2022-10-11T01:36:56.802Z,102371.97
2022-10-11T01:39:38.055Z,102380.69
2022-10-11T01:42:10.876Z,102381.53
2022-10-11T01:44:41.422Z,102385.06
2022-10-11T01:47:08.545Z,102393.78
2022-10-11T01:49:35.632Z,102396.34
2022-10-11T01:52:07.130Z,102389.34
2022-10-11T01:55:23.176Z,102391.03
2022-10-11T01:58:40.771Z,102394.47
2022-10-11T02:01:51.113Z,102394.41
2022-10-11T02:04:49.447Z,102387.34
2022-10-11T02:07:24.515Z,102402.13
2022-10-11T02:10:03.937Z,102406.44
2022-10-11T02:12:51.654Z,102397.56
2022-10-11T02:15:23.352Z,102403.66
2022-10-11T02:17:57.332Z,102397.47
2022-10-11T02:20:30.839Z,102404.38
2022-10-11T02:23:10.693Z,102407.00
2022-10-11T02:25:39.607Z,102401.69
2022-10-11T02:28:17.335Z,102405.97
2022-10-11T02:30:49.846Z,102402.44
2022-10-11T02:33:27.364Z,102410.25
2022-10-11T02:36:05.099Z,102414.53
2022-10-11T02:38:46.002Z,102412.75
2022-10-11T02:41:25.060Z,102421.44
2022-10-11T02:44:00.512Z,102421.38
2022-10-11T02:46:30.579Z,102417.84
2022-10-11T02:49:01.945Z,102417.78
2022-10-11T02:51:33.584Z,102419.47
2022-10-11T02:54:06.783Z,102417.72
2022-10-11T02:56:33.825Z,102423.78
2022-10-11T02:59:00.860Z,102415.03
2022-10-11T03:01:27.966Z,102420.25
2022-10-11T03:03:55.200Z,102433.25
2022-10-11T03:06:22.213Z,102432.41
2022-10-11T03:08:49.362Z,102429.78
2022-10-11T03:11:16.346Z,102426.34
2022-10-11T03:13:43.307Z,102429.00
2022-10-11T03:16:10.716Z,102427.25
2022-10-11T03:18:37.825Z,102428.16
2022-10-11T03:21:05.011Z,102426.41
2022-10-11T03:23:32.321Z,102422.06
2022-10-11T03:25:59.267Z,102429.03
2022-10-11T03:28:26.402Z,102431.63
2022-10-11T03:30:53.613Z,102439.41
2022-10-11T03:33:21.740Z,102434.13
2022-10-11T03:35:49.752Z,102436.69
2022-10-11T03:38:22.505Z,102438.47
2022-10-11T03:40:49.851Z,102442.78
2022-10-11T03:43:17.706Z,102447.13
2022-10-11T03:45:44.825Z,102453.19
2022-10-11T03:48:12.872Z,102448.81
2022-10-11T03:50:40.005Z,102448.72
2022-10-11T03:53:07.707Z,102446.94
2022-10-11T03:55:35.142Z,102445.97
2022-10-11T03:58:02.263Z,102451.16
2022-10-11T04:00:29.291Z,102451.09
2022-10-11T04:02:56.407Z,102464.94
2022-10-11T04:05:23.411Z,102457.91
2022-10-11T04:07:51.159Z,102463.91
2022-10-11T04:10:18.378Z,102470.75
2022-10-11T04:12:46.123Z,102466.28
2022-10-11T04:15:13.452Z,102460.03
2022-10-11T04:17:41.230Z,102466.09
2022-10-11T04:20:09.490Z,102472.94
2022-10-11T04:22:36.680Z,102478.06
2022-10-11T04:25:04.751Z,102477.94
2022-10-11T04:27:32.775Z,102476.09
2022-10-11T04:29:59.928Z,102477.75
2022-10-11T04:32:27.835Z,102480.28
2022-10-11T04:34:54.895Z,102481.13
2022-10-11T04:37:22.134Z,102488.03
2022-10-11T04:39:49.108Z,102488.88
2022-10-11T04:42:16.446Z,102482.81
2022-10-11T04:44:43.512Z,102492.34
2022-10-11T04:47:10.626Z,102498.47
2022-10-11T04:49:38.740Z,102494.97
2022-10-11T04:52:06.001Z,102497.56
2022-10-11T04:54:33.181Z,102501.84
2022-10-11T04:57:00.431Z,102495.66
2022-10-11T04:59:28.270Z,102493.88
2022-10-11T05:01:55.350Z,102492.94
2022-10-11T05:04:22.625Z,102493.78
2022-10-11T05:06:49.659Z,102495.47
2022-10-11T05:09:16.744Z,102500.69
2022-10-11T05:11:43.816Z,102494.53
2022-10-11T05:14:10.861Z,102507.56
2022-10-11T05:16:38.074Z,102507.56
2022-10-11T05:19:05.035Z,102504.06
2022-10-11T05:21:32.457Z,102510.13
2022-10-11T05:23:59.574Z,102515.34
2022-10-11T05:26:28.321Z,102515.28
2022-10-11T05:28:56.000Z,102514.38
2022-10-11T05:31:24.838Z,102520.44
2022-10-11T05:33:52.144Z,102519.50
2022-10-11T05:36:19.520Z,102515.09
2022-10-11T05:38:46.871Z,102523.69
2022-10-11T05:41:15.493Z,102517.53
2022-10-11T05:43:47.079Z,102518.28
2022-10-11T05:46:14.429Z,102525.16
2022-10-11T05:48:41.685Z,102522.44
2022-10-11T05:51:10.466Z,102536.31
2022-10-11T05:53:39.356Z,102529.31
2022-10-11T05:56:19.967Z,102537.09
2022-10-11T05:58:47.391Z,102539.63
2022-10-11T06:01:23.669Z,102543.13
2022-10-11T06:03:51.511Z,102537.75
2022-10-11T06:06:19.613Z,102535.09
2022-10-11T06:08:48.845Z,102548.19
2022-10-11T06:11:23.451Z,102552.53
2022-10-11T06:13:50.434Z,102546.38
2022-10-11T06:16:17.423Z,102550.78
2022-10-11T06:18:44.451Z,102552.56
2022-10-11T06:21:13.100Z,102552.66
2022-10-11T06:23:40.063Z,102557.03
2022-10-11T06:26:10.359Z,102558.91
2022-10-11T06:28:38.170Z,102562.41
2022-10-11T06:31:06.146Z,102561.66
2022-10-11T06:33:34.572Z,102566.06
2022-10-11T06:36:07.659Z,102562.63
2022-10-11T06:38:35.160Z,102567.09
2022-10-11T06:41:17.259Z,102573.34
2022-10-11T06:43:45.224Z,102569.94
2022-10-11T06:46:12.977Z,102576.19
2022-10-11T06:48:43.511Z,102581.59
2022-10-11T06:51:15.104Z,102580.91
2022-10-11T06:53:43.057Z,102577.63
2022-10-11T06:56:12.896Z,102588.28
2022-10-11T06:58:40.393Z,102584.19
2022-10-11T07:01:12.381Z,102593.13
2022-10-11T07:03:40.519Z,102593.38
2022-10-11T07:06:11.912Z,102591.97
2022-10-11T07:08:39.886Z,102598.38
2022-10-11T07:11:17.220Z,102599.66
2022-10-11T07:13:50.911Z,102600.84
2022-10-11T07:16:18.496Z,102604.72
2022-10-11T07:18:54.785Z,102594.56
2022-10-11T07:21:24.762Z,102608.09
2022-10-11T07:23:51.936Z,102608.47
2022-10-11T07:26:38.618Z,102606.19
2022-10-11T07:29:09.403Z,102606.50
2022-10-11T07:31:40.300Z,102612.03
2022-10-11T07:34:08.280Z,102611.47
2022-10-11T07:36:36.059Z,102605.59
2022-10-11T07:39:06.984Z,102612.91
2022-10-11T07:41:34.150Z,102607.84
2022-10-11T07:44:01.167Z,102609.72
2022-10-11T07:46:28.139Z,102604.63
2022-10-11T07:48:55.229Z,102601.22
2022-10-11T07:51:24.546Z,102607.47
2022-10-11T07:53:55.902Z,102606.66
2022-10-11T07:56:27.646Z,102617.22
2022-10-11T07:58:58.895Z,102611.19
2022-10-11T08:01:27.831Z,102612.09
2022-10-11T08:03:57.183Z,102613.91
2022-10-11T08:06:29.317Z,102622.69
2022-10-11T08:08:57.907Z,102624.50
2022-10-11T08:11:29.989Z,102618.38
2022-10-11T08:14:08.799Z,102615.75
2022-10-11T08:16:37.405Z,102621.94
2022-10-11T08:19:05.872Z,102629.84
2022-10-11T08:21:33.401Z,102627.22
2022-10-11T08:24:04.282Z,102623.72
2022-10-11T08:26:33.352Z,102623.72
2022-10-11T08:31:34.812Z,102626.38
2022-10-11T08:34:02.726Z,102624.63
2022-10-11T08:36:29.914Z,102629.91
2022-10-11T08:41:54.341Z,102636.91
2022-10-11T08:45:10.595Z,102636.91
2022-10-11T08:47:44.172Z,102631.63
2022-10-11T08:50:23.713Z,102646.56
2022-10-11T08:53:06.060Z,102649.22
2022-10-11T08:55:48.054Z,102636.88
2022-10-11T08:58:37.418Z,102648.28
2022-10-11T09:01:18.783Z,102651.78
2022-10-11T09:03:48.543Z,102644.69
2022-10-11T09:06:50.254Z,102643.75
2022-10-11T09:10:01.919Z,102651.63
2022-10-11T09:13:05.939Z,102646.28
2022-10-11T09:15:48.934Z,102651.50
2022-10-11T09:18:31.510Z,102654.09
2022-10-11T09:21:40.070Z,102646.91
2022-10-11T09:24:34.562Z,102647.72
2022-10-11T09:27:19.132Z,102645.88
2022-10-11T09:30:06.187Z,102644.88
2022-10-11T09:32:42.497Z,102649.19
2022-10-11T09:35:22.372Z,102649.16
2022-10-11T09:38:26.316Z,102650.03
2022-10-11T09:41:25.363Z,102647.34
2022-10-11T09:43:54.380Z,102646.41
2022-10-11T09:46:40.055Z,102652.56
2022-10-11T09:49:15.869Z,102653.34
2022-10-11T09:51:51.643Z,102652.41
2022-10-11T09:54:22.264Z,102652.28
2022-10-11T09:56:49.343Z,102651.22
2022-10-11T09:59:30.069Z,102651.09
2022-10-11T10:02:27.423Z,102646.47
2022-10-11T10:05:10.791Z,102650.75
2022-10-11T10:07:41.166Z,102647.97
2022-10-11T10:11:01.991Z,102649.53
2022-10-11T10:13:56.068Z,102649.34
2022-10-11T10:16:33.973Z,102643.03
2022-10-11T10:19:05.075Z,102652.59
2022-10-11T10:21:37.557Z,102647.19
2022-10-11T10:24:17.661Z,102644.41
2022-10-11T10:27:18.447Z,102645.09
2022-10-11T10:30:00.869Z,102637.84
2022-10-11T10:32:43.875Z,102642.97
2022-10-11T10:35:48.761Z,102649.88
2022-10-11T10:38:32.642Z,102646.19
2022-10-11T10:41:09.117Z,102638.13
2022-10-11T10:43:42.888Z,102639.75
2022-10-11T10:46:16.016Z,102639.59
2022-10-11T10:49:28.765Z,102640.28
2022-10-11T10:52:16.044Z,102645.41
2022-10-11T10:54:55.291Z,102637.31
2022-10-11T10:58:18.611Z,102633.56
2022-10-11T11:00:56.048Z,102637.81
2022-10-11T11:03:47.885Z,102636.78
2022-10-11T11:06:51.324Z,102637.47
2022-10-11T11:09:55.000Z,102628.38
2022-10-11T11:12:31.580Z,102621.09
2022-10-11T11:15:31.245Z,102621.78
2022-10-11T11:18:29.067Z,102623.38
2022-10-11T11:22:02.015Z,102620.47
2022-10-11T11:24:43.939Z,102611.50
2022-10-11T11:27:39.980Z,102611.38
2022-10-11T11:30:41.251Z,102612.06
2022-10-11T11:33:49.063Z,102612.78
2022-10-11T11:36:34.204Z,102599.19
2022-10-11T11:39:05.063Z,102597.28
2022-10-11T11:41:47.707Z,102600.63
2022-10-11T11:44:42.676Z,102602.81
2022-10-11T11:47:32.447Z,102595.16
2022-10-11T11:50:25.268Z,102604.13
2022-10-11T11:53:21.147Z,102593.94
2022-10-11T11:56:04.296Z,102589.53
2022-10-11T11:58:45.196Z,102583.19
2022-10-11T12:01:31.487Z,102582.22
2022-10-11T12:04:12.714Z,102580.53
2022-10-11T12:06:52.383Z,102577.72
2022-10-11T12:09:25.792Z,102579.72
2022-10-11T12:11:58.603Z,102572.63
2022-10-11T12:14:34.168Z,102570.75
2022-10-11T12:17:18.755Z,102572.81
2022-10-11T12:20:06.635Z,102572.44
2022-10-11T12:22:33.404Z,102568.28
2022-10-11T12:25:18.361Z,102565.94
2022-10-11T12:27:52.942Z,102564.31
2022-10-11T12:30:44.597Z,102561.97
2022-10-11T12:33:25.824Z,102559.69
2022-10-11T12:35:53.743Z,102553.97
2022-10-11T12:38:35.564Z,102553.44
2022-10-11T12:41:16.746Z,102554.66
2022-10-11T12:43:49.343Z,102554.13
2022-10-11T12:46:28.478Z,102546.66
2022-10-11T12:49:31.185Z,102546.13
2022-10-11T12:52:34.082Z,102544.13
2022-10-11T12:56:01.963Z,102541.84
2022-10-11T12:58:41.469Z,102551.38
2022-10-11T13:01:22.098Z,102543.00
2022-10-11T13:04:00.722Z,102544.59
2022-10-11T13:06:48.764Z,102537.16
2022-10-11T13:09:29.727Z,102540.16
2022-10-11T13:12:20.738Z,102539.78
2022-10-11T13:15:05.298Z,102527.97
2022-10-11T13:17:38.819Z,102537.56
2022-10-11T13:20:20.357Z,102540.81
2022-10-11T13:22:55.140Z,102541.53
2022-10-11T13:25:27.876Z,102533.88
2022-10-11T13:27:59.458Z,102534.75
2022-10-11T13:30:31.639Z,102533.78
2022-10-11T13:33:13.177Z,102534.69
2022-10-11T13:35:41.299Z,102525.03
2022-10-11T13:38:23.874Z,102529.44
2022-10-11T13:40:51.820Z,102525.16
2022-10-11T13:43:37.946Z,102529.50
2022-10-11T13:46:05.839Z,102522.38
2022-10-11T13:48:40.163Z,102525.72
2022-10-11T13:51:39.398Z,102519.69
2022-10-11T13:54:13.425Z,102516.91
2022-10-11T13:56:52.574Z,102517.28
2022-10-11T13:59:23.888Z,102513.41
2022-10-11T14:02:00.607Z,102518.63
2022-10-11T14:04:29.930Z,102522.06
2022-10-11T14:07:02.469Z,102517.16
2022-10-11T14:09:36.574Z,102521.84
2022-10-11T14:12:39.632Z,102517.16
2022-10-11T14:15:34.578Z,102519.88
2022-10-11T14:18:33.577Z,102521.22
2022-10-11T14:21:19.311Z,102516.44
2022-10-11T14:23:50.719Z,102512.41
2022-10-11T14:26:19.355Z,102510.97
2022-10-11T14:28:54.160Z,102512.19
2022-10-11T14:31:22.919Z,102509.03
2022-10-11T14:33:50.161Z,102499.56
2022-10-11T14:36:17.303Z,102513.97
2022-10-11T14:38:46.311Z,102504.66
2022-10-11T14:41:13.370Z,102509.41
2022-10-11T14:43:40.441Z,102510.53
2022-10-11T14:46:22.304Z,102506.22
2022-10-11T14:48:55.600Z,102507.28
2022-10-11T14:51:32.205Z,102502.97
2022-10-11T14:53:59.480Z,102504.84
2022-10-11T14:56:26.587Z,102512.97
2022-10-11T14:58:53.562Z,102507.75
2022-10-11T15:01:20.860Z,102505.91
2022-10-11T15:03:48.087Z,102501.13
2022-10-11T15:06:30.508Z,102494.53
2022-10-11T15:08:58.644Z,102494.19
2022-10-11T15:11:26.431Z,102497.34
2022-10-11T15:13:53.478Z,102492.03
2022-10-11T15:16:22.550Z,102490.41
2022-10-11T15:18:52.982Z,102488.88
2022-10-11T15:21:25.508Z,102490.81
2022-10-11T15:23:54.623Z,102492.00
2022-10-11T15:26:25.941Z,102489.50
2022-10-11T15:28:56.124Z,102492.41
2022-10-11T15:31:23.767Z,102487.31
2022-10-11T15:33:51.040Z,102488.53
2022-10-11T15:36:22.645Z,102488.69
2022-10-11T15:38:49.798Z,102486.25
2022-10-11T15:41:20.045Z,102484.66
2022-10-11T15:43:48.930Z,102483.00
2022-10-11T15:46:19.921Z,102480.50
2022-10-11T15:48:49.256Z,102475.34
2022-10-11T15:51:17.174Z,102469.28
2022-10-11T15:53:44.883Z,102473.88
2022-10-11T15:56:18.686Z,102470.53
2022-10-11T15:58:46.210Z,102474.25
2022-10-11T16:01:19.933Z,102470.84
2022-10-11T16:03:49.467Z,102470.09
2022-10-11T16:06:19.173Z,102467.63
2022-10-11T16:08:47.400Z,102475.72
2022-10-11T16:11:14.934Z,102476.81
2022-10-11T16:13:42.043Z,102472.53
2022-10-11T16:16:10.327Z,102467.44
2022-10-11T16:18:38.830Z,102474.69
2022-10-11T16:21:11.313Z,102470.41
2022-10-11T16:23:39.981Z,102475.00
2022-10-11T16:26:13.693Z,102476.03
2022-10-11T16:28:41.957Z,102481.47
2022-10-11T16:31:14.272Z,102476.34
2022-10-11T16:33:47.746Z,102479.09
2022-10-11T16:36:40.165Z,102474.81
2022-10-11T16:39:14.715Z,102471.44
2022-10-11T16:41:42.716Z,102487.41
2022-10-11T16:44:19.147Z,102469.88
2022-10-11T16:46:48.535Z,102481.41
2022-10-11T16:49:19.890Z,102481.50
2022-10-11T16:51:47.236Z,102484.25
2022-10-11T16:54:22.955Z,102485.19
2022-10-11T16:56:51.611Z,102480.00
2022-10-11T16:59:20.238Z,102480.94
2022-10-11T17:01:47.866Z,102479.25
2022-10-11T17:04:15.306Z,102481.06
2022-10-11T17:06:43.968Z,102479.38
2022-10-11T17:09:11.859Z,102480.31
2022-10-11T17:11:39.334Z,102487.41
2022-10-11T17:14:07.206Z,102487.44
2022-10-11T17:16:36.280Z,102483.09
2022-10-11T17:19:04.092Z,102488.41
2022-10-11T17:21:31.755Z,102486.66
2022-10-11T17:24:00.783Z,102487.53
2022-10-11T17:26:27.959Z,102484.03
2022-10-11T17:29:00.527Z,102487.59
2022-10-11T17:31:29.992Z,102486.69
2022-10-11T17:34:01.222Z,102488.47
2022-10-11T17:36:35.938Z,102496.41
2022-10-11T17:39:10.060Z,102498.16
2022-10-11T17:41:37.430Z,102488.50
2022-10-11T17:44:05.404Z,102494.66
2022-10-11T17:46:32.841Z,102501.69
2022-10-11T17:49:04.730Z,102506.09
2022-10-11T17:51:34.483Z,102508.69
2022-10-11T17:54:02.187Z,102500.78
2022-10-11T17:56:35.076Z,102495.53
2022-10-11T17:59:03.732Z,102499.91
2022-10-11T18:01:30.917Z,102497.28
2022-10-11T18:04:03.109Z,102499.88
2022-10-11T18:06:39.561Z,102502.50
2022-10-11T18:09:07.411Z,102501.63
2022-10-11T18:11:34.438Z,102498.97
2022-10-11T18:14:01.590Z,102504.25
2022-10-11T18:16:31.527Z,102507.75
2022-10-11T18:18:59.109Z,102500.69
2022-10-11T18:21:33.399Z,102503.28
2022-10-11T18:24:12.114Z,102503.28
2022-10-11T18:26:46.513Z,102506.75
2022-10-11T18:29:13.891Z,102508.50
2022-10-11T18:31:41.390Z,102503.22
2022-10-11T18:34:10.881Z,102509.38
2022-10-11T18:36:39.896Z,102504.09
2022-10-11T18:39:11.354Z,102504.94
2022-10-11T18:41:42.060Z,102499.66
2022-10-11T18:44:13.968Z,102496.06
2022-10-11T18:46:42.607Z,102497.81
2022-10-11T18:49:10.204Z,102499.56
2022-10-11T18:51:42.286Z,102490.75
2022-10-11T18:54:15.227Z,102496.84
2022-10-11T18:56:45.719Z,102495.97
2022-10-11T18:59:13.143Z,102492.41
2022-10-11T19:01:44.788Z,102492.41
2022-10-11T19:04:16.073Z,102493.25
2022-10-11T19:06:49.627Z,102501.09
2022-10-11T19:09:25.693Z,102494.91
2022-10-11T19:11:56.145Z,102485.28
2022-10-11T19:14:28.287Z,102490.50
2022-10-11T19:16:56.177Z,102489.59
2022-10-11T19:19:27.606Z,102494.81
2022-10-11T19:21:55.178Z,102491.28
2022-10-11T19:24:27.307Z,102489.53
2022-10-11T19:26:58.521Z,102487.75
2022-10-11T19:29:28.846Z,102492.97
2022-10-11T19:32:00.719Z,102489.44
2022-10-11T19:34:28.498Z,102487.63
2022-10-11T19:36:58.904Z,102489.34
2022-10-11T19:39:26.203Z,102485.84
2022-10-11T19:41:53.801Z,102486.66
2022-10-11T19:44:20.945Z,102487.53
2022-10-11T19:46:52.438Z,102486.63
2022-10-11T19:49:25.853Z,102480.47
2022-10-11T19:51:55.084Z,102482.19
2022-10-11T19:54:22.883Z,102476.91
2022-10-11T19:56:50.027Z,102471.63
2022-10-11T19:59:17.401Z,102471.63
2022-10-11T20:01:49.376Z,102470.72
2022-10-11T20:04:50.953Z,102463.69
2022-10-11T20:07:08.682Z,102472.38
2022-10-11T20:09:36.810Z,102472.34
2022-10-11T20:12:03.994Z,102478.44
2022-10-11T20:14:30.990Z,102474.88
2022-10-11T20:16:58.144Z,102473.09
2022-10-11T20:19:30.671Z,102472.16
2022-10-11T20:22:00.828Z,102473.00
2022-10-11T20:24:32.693Z,102466.88
2022-10-11T20:27:04.072Z,102472.97
2022-10-11T20:29:33.282Z,102470.28
2022-10-11T20:32:00.530Z,102469.38
2022-10-11T20:34:27.885Z,102458.84
2022-10-11T20:36:54.883Z,102466.72
2022-10-11T20:39:22.029Z,102463.19
2022-10-11T20:41:49.086Z,102462.28
2022-10-11T20:44:16.712Z,102463.09
2022-10-11T20:46:43.698Z,102465.66
2022-10-11T20:49:12.487Z,102474.38
2022-10-11T20:51:42.047Z,102475.22
2022-10-11T20:54:10.423Z,102469.94
2022-10-11T20:56:38.313Z,102462.03
2022-10-11T20:59:06.261Z,102473.34
2022-10-11T21:01:39.820Z,102474.22
2022-10-11T21:04:14.179Z,102469.81
2022-10-11T21:06:41.150Z,102479.38
2022-10-11T21:09:10.169Z,102481.03
2022-10-11T21:11:38.454Z,102477.53
2022-10-11T21:14:06.393Z,102478.34
2022-10-11T21:16:34.158Z,102487.13
2022-10-11T21:19:02.558Z,102485.31
2022-10-11T21:21:31.130Z,102485.25
2022-10-11T21:24:01.754Z,102487.84
2022-10-11T21:26:30.983Z,102482.56
2022-10-11T21:29:01.167Z,102479.03
2022-10-11T21:31:33.523Z,102483.38
2022-10-11T21:34:02.624Z,102486.81
2022-10-11T21:36:30.995Z,102482.41
2022-10-11T21:38:58.020Z,102475.34
2022-10-11T21:41:31.312Z,102478.81
2022-10-11T21:43:58.528Z,102478.72
2022-10-11T21:49:19.746Z,102469.88
2022-10-11T21:51:46.756Z,102476.81
2022-10-11T21:54:14.318Z,102467.19
2022-10-11T21:56:41.543Z,102471.53
2022-10-11T21:59:12.170Z,102465.38
2022-10-11T22:01:41.746Z,102474.06
2022-10-11T22:04:10.859Z,102470.53
2022-10-11T22:06:38.762Z,102470.53
2022-10-11T22:09:07.685Z,102472.22
2022-10-11T22:11:35.683Z,102470.44
2022-10-11T22:14:03.337Z,102480.84
2022-10-11T22:16:30.493Z,102465.09
2022-10-11T22:18:57.584Z,102471.19
2022-10-11T22:21:24.605Z,102479.00
2022-10-11T22:23:54.145Z,102479.84
2022-10-11T22:26:26.344Z,102469.31
2022-10-11T22:28:53.468Z,102472.72
2022-10-11T22:31:22.172Z,102472.72
2022-10-11T22:33:54.580Z,102476.16
2022-10-11T22:36:24.255Z,102472.63
2022-10-11T22:38:53.228Z,102474.31
2022-10-11T22:41:20.904Z,102473.41
2022-10-11T22:43:48.228Z,102463.72
2022-10-11T22:46:15.601Z,102467.19
2022-10-11T22:48:42.803Z,102466.25
2022-10-11T22:51:09.803Z,102464.44
2022-10-11T22:53:38.628Z,102460.00
2022-10-11T22:56:05.915Z,102460.81
2022-10-11T22:58:32.877Z,102452.03
2022-10-11T23:01:11.428Z,102463.34
2022-10-11T23:03:38.566Z,102450.22
2022-10-11T23:06:06.286Z,102457.09
2022-10-11T23:08:33.402Z,102455.31
2022-10-11T23:11:06.375Z,102456.16
2022-10-11T23:13:35.004Z,102460.44
2022-10-11T23:16:11.981Z,102454.31
2022-10-11T23:18:39.438Z,102453.38
2022-10-11T23:21:07.742Z,102451.53
2022-10-11T23:23:35.174Z,102455.91
2022-10-11T23:26:09.003Z,102456.75
2022-10-11T23:28:37.174Z,102451.53
2022-10-11T23:31:13.513Z,102454.16
2022-10-11T23:33:41.084Z,102448.06
2022-10-11T23:36:24.564Z,102459.44
2022-10-11T23:38:59.065Z,102451.53
2022-10-11T23:41:28.371Z,102460.19
2022-10-11T23:43:56.097Z,102453.19
2022-10-11T23:46:24.823Z,102459.34
2022-10-11T23:48:51.812Z,102454.09
2022-10-11T23:51:18.853Z,102455.81
2022-10-11T23:53:45.879Z,102453.22
2022-10-11T23:56:13.196Z,102459.34
2022-10-11T23:58:40.364Z,102455.91
